sensor_id;sensor_type;location;lat;lon;timestamp;temperature;humidity
1602;DHT22;794;48.592;9.634;2023-03-02T00:00:58;2.50;1.00
1602;DHT22;794;48.592;9.634;2023-03-02T00:03:29;4.50;1.00
1602;DHT22;794;48.592;9.634;2023-03-02T00:05:58;2.20;1.00
1602;DHT22;794;48.592;9.634;2023-03-02T00:08:26;2.50;1.00
1602;DHT22;794;48.592;9.634;2023-03-02T00:10:56;3.10;1.00
1602;DHT22;794;48.592;9.634;2023-03-02T00:13:25;2.00;1.00
1602;DHT22;794;48.592;9.634;2023-03-02T00:15:52;2.50;1.00
1602;DHT22;794;48.592;9.634;2023-03-02T00:18:19;3.60;1.00
1602;DHT22;794;48.592;9.634;2023-03-02T00:20:46;2.90;1.00
1602;DHT22;794;48.592;9.634;2023-03-02T00:23:14;2.10;1.00
1602;DHT22;794;48.592;9.634;2023-03-02T00:25:41;3.90;1.00
1602;DHT22;794;48.592;9.634;2023-03-02T00:28:09;4.20;1.00
1602;DHT22;794;48.592;9.634;2023-03-02T00:30:36;3.70;1.00
1602;DHT22;794;48.592;9.634;2023-03-02T00:33:03;2.30;1.00
1602;DHT22;794;48.592;9.634;2023-03-02T00:35:30;3.60;1.00
1602;DHT22;794;48.592;9.634;2023-03-02T00:38:02;2.20;1.00
1602;DHT22;794;48.592;9.634;2023-03-02T00:40:29;2.10;1.00
1602;DHT22;794;48.592;9.634;2023-03-02T00:42:55;3.30;1.00
1602;DHT22;794;48.592;9.634;2023-03-02T00:45:24;3.70;1.00
1602;DHT22;794;48.592;9.634;2023-03-02T00:47:51;2.60;1.00
1602;DHT22;794;48.592;9.634;2023-03-02T00:50:18;3.80;1.00
1602;DHT22;794;48.592;9.634;2023-03-02T00:52:45;2.20;1.00
1602;DHT22;794;48.592;9.634;2023-03-02T00:55:12;2.00;1.00
1602;DHT22;794;48.592;9.634;2023-03-02T00:57:39;1.90;1.00
1602;DHT22;794;48.592;9.634;2023-03-02T01:00:07;3.50;1.00
1602;DHT22;794;48.592;9.634;2023-03-02T01:02:35;2.30;1.00
1602;DHT22;794;48.592;9.634;2023-03-02T01:05:04;2.60;1.00
1602;DHT22;794;48.592;9.634;2023-03-02T01:07:31;2.00;1.00
1602;DHT22;794;48.592;9.634;2023-03-02T01:09:58;4.20;1.00
1602;DHT22;794;48.592;9.634;2023-03-02T01:12:24;2.50;1.00
1602;DHT22;794;48.592;9.634;2023-03-02T01:14:51;3.80;1.00
1602;DHT22;794;48.592;9.634;2023-03-02T01:17:18;4.00;1.00
1602;DHT22;794;48.592;9.634;2023-03-02T01:19:48;3.10;1.00
1602;DHT22;794;48.592;9.634;2023-03-02T01:22:14;2.30;1.00
1602;DHT22;794;48.592;9.634;2023-03-02T01:24:41;2.00;1.00
1602;DHT22;794;48.592;9.634;2023-03-02T01:27:08;2.30;1.00
1602;DHT22;794;48.592;9.634;2023-03-02T01:29:36;3.40;1.00
1602;DHT22;794;48.592;9.634;2023-03-02T01:32:03;1.90;1.00
1602;DHT22;794;48.592;9.634;2023-03-02T01:34:30;2.20;1.00
1602;DHT22;794;48.592;9.634;2023-03-02T01:36:59;3.70;1.00
1602;DHT22;794;48.592;9.634;2023-03-02T01:39:26;1.90;1.00
1602;DHT22;794;48.592;9.634;2023-03-02T01:41:53;1.90;1.00
1602;DHT22;794;48.592;9.634;2023-03-02T01:44:38;3.30;1.00
1602;DHT22;794;48.592;9.634;2023-03-02T01:47:10;3.20;1.00
1602;DHT22;794;48.592;9.634;2023-03-02T01:49:41;3.40;1.00
1602;DHT22;794;48.592;9.634;2023-03-02T01:52:10;2.10;1.00
1602;DHT22;794;48.592;9.634;2023-03-02T01:54:39;4.00;1.00
1602;DHT22;794;48.592;9.634;2023-03-02T01:57:08;3.70;1.00
1602;DHT22;794;48.592;9.634;2023-03-02T01:59:37;3.70;1.00
1602;DHT22;794;48.592;9.634;2023-03-02T02:02:08;2.90;1.00
1602;DHT22;794;48.592;9.634;2023-03-02T02:04:37;4.00;1.00
1602;DHT22;794;48.592;9.634;2023-03-02T02:07:07;3.70;1.00
1602;DHT22;794;48.592;9.634;2023-03-02T02:09:38;2.30;1.00
1602;DHT22;794;48.592;9.634;2023-03-02T02:12:05;4.80;1.00
1602;DHT22;794;48.592;9.634;2023-03-02T02:14:33;2.00;1.00
1602;DHT22;794;48.592;9.634;2023-03-02T02:17:00;3.10;1.00
1602;DHT22;794;48.592;9.634;2023-03-02T02:19:38;3.80;1.00
1602;DHT22;794;48.592;9.634;2023-03-02T02:22:06;2.10;1.00
1602;DHT22;794;48.592;9.634;2023-03-02T02:24:40;3.70;1.00
1602;DHT22;794;48.592;9.634;2023-03-02T02:27:12;2.30;1.00
1602;DHT22;794;48.592;9.634;2023-03-02T02:29:42;3.10;1.00
1602;DHT22;794;48.592;9.634;2023-03-02T02:32:13;3.70;1.00
1602;DHT22;794;48.592;9.634;2023-03-02T02:34:44;2.10;1.00
1602;DHT22;794;48.592;9.634;2023-03-02T02:37:14;2.20;1.00
1602;DHT22;794;48.592;9.634;2023-03-02T02:39:44;2.90;1.00
1602;DHT22;794;48.592;9.634;2023-03-02T02:42:15;3.30;1.00
1602;DHT22;794;48.592;9.634;2023-03-02T02:44:43;1.90;1.00
1602;DHT22;794;48.592;9.634;2023-03-02T02:47:15;2.40;1.00
1602;DHT22;794;48.592;9.634;2023-03-02T02:49:43;3.90;1.00
1602;DHT22;794;48.592;9.634;2023-03-02T02:52:14;1.80;1.00
1602;DHT22;794;48.592;9.634;2023-03-02T02:54:44;3.90;1.00
1602;DHT22;794;48.592;9.634;2023-03-02T02:57:13;2.80;1.00
1602;DHT22;794;48.592;9.634;2023-03-02T02:59:45;2.20;1.00
1602;DHT22;794;48.592;9.634;2023-03-02T03:02:17;2.00;1.00
1602;DHT22;794;48.592;9.634;2023-03-02T03:04:45;2.30;1.00
1602;DHT22;794;48.592;9.634;2023-03-02T03:07:20;3.40;1.00
1602;DHT22;794;48.592;9.634;2023-03-02T03:09:52;2.30;1.00
1602;DHT22;794;48.592;9.634;2023-03-02T03:12:24;2.00;1.00
1602;DHT22;794;48.592;9.634;2023-03-02T03:14:52;2.10;1.00
1602;DHT22;794;48.592;9.634;2023-03-02T03:17:19;2.00;1.00
1602;DHT22;794;48.592;9.634;2023-03-02T03:19:46;4.10;1.00
1602;DHT22;794;48.592;9.634;2023-03-02T03:22:15;2.70;1.00
1602;DHT22;794;48.592;9.634;2023-03-02T03:24:43;2.10;1.00
1602;DHT22;794;48.592;9.634;2023-03-02T03:27:13;3.60;1.00
1602;DHT22;794;48.592;9.634;2023-03-02T03:29:43;1.70;1.00
1602;DHT22;794;48.592;9.634;2023-03-02T03:32:11;1.90;1.00
1602;DHT22;794;48.592;9.634;2023-03-02T03:34:38;2.40;1.00
1602;DHT22;794;48.592;9.634;2023-03-02T03:37:06;2.00;1.00
1602;DHT22;794;48.592;9.634;2023-03-02T03:39:34;4.00;1.00
1602;DHT22;794;48.592;9.634;2023-03-02T03:42:01;3.10;1.00
1602;DHT22;794;48.592;9.634;2023-03-02T03:44:28;3.30;1.00
1602;DHT22;794;48.592;9.634;2023-03-02T03:46:57;3.30;1.00
1602;DHT22;794;48.592;9.634;2023-03-02T03:49:24;2.80;1.00
1602;DHT22;794;48.592;9.634;2023-03-02T03:51:51;3.80;1.00
1602;DHT22;794;48.592;9.634;2023-03-02T03:54:18;2.10;1.00
1602;DHT22;794;48.592;9.634;2023-03-02T03:56:47;2.70;1.00
1602;DHT22;794;48.592;9.634;2023-03-02T03:59:17;1.60;1.00
1602;DHT22;794;48.592;9.634;2023-03-02T04:01:47;3.30;1.00
1602;DHT22;794;48.592;9.634;2023-03-02T04:04:18;3.30;1.00
1602;DHT22;794;48.592;9.634;2023-03-02T04:06:46;3.00;1.00
1602;DHT22;794;48.592;9.634;2023-03-02T04:09:13;1.90;1.00
1602;DHT22;794;48.592;9.634;2023-03-02T04:11:42;1.90;1.00
1602;DHT22;794;48.592;9.634;2023-03-02T04:14:10;1.90;1.00
1602;DHT22;794;48.592;9.634;2023-03-02T04:16:38;2.30;1.00
1602;DHT22;794;48.592;9.634;2023-03-02T04:19:06;1.60;1.00
1602;DHT22;794;48.592;9.634;2023-03-02T04:21:36;3.60;1.00
1602;DHT22;794;48.592;9.634;2023-03-02T04:24:03;1.60;1.00
1602;DHT22;794;48.592;9.634;2023-03-02T04:26:31;1.50;1.00
1602;DHT22;794;48.592;9.634;2023-03-02T04:28:58;2.80;1.00
1602;DHT22;794;48.592;9.634;2023-03-02T04:31:25;3.30;1.00
1602;DHT22;794;48.592;9.634;2023-03-02T04:33:52;1.80;1.00
1602;DHT22;794;48.592;9.634;2023-03-02T04:36:19;1.60;1.00
1602;DHT22;794;48.592;9.634;2023-03-02T04:38:47;3.90;1.00
1602;DHT22;794;48.592;9.634;2023-03-02T04:41:15;2.00;1.00
1602;DHT22;794;48.592;9.634;2023-03-02T04:43:42;3.60;1.00
1602;DHT22;794;48.592;9.634;2023-03-02T04:46:09;1.70;1.00
1602;DHT22;794;48.592;9.634;2023-03-02T04:48:39;2.20;1.00
1602;DHT22;794;48.592;9.634;2023-03-02T04:51:05;2.00;1.00
1602;DHT22;794;48.592;9.634;2023-03-02T04:53:33;3.70;1.00
1602;DHT22;794;48.592;9.634;2023-03-02T04:56:01;2.70;1.00
1602;DHT22;794;48.592;9.634;2023-03-02T04:58:28;2.00;1.00
1602;DHT22;794;48.592;9.634;2023-03-02T05:00:55;1.70;1.00
1602;DHT22;794;48.592;9.634;2023-03-02T05:03:26;3.10;1.00
1602;DHT22;794;48.592;9.634;2023-03-02T05:05:53;2.30;1.00
1602;DHT22;794;48.592;9.634;2023-03-02T05:08:21;2.50;1.00
1602;DHT22;794;48.592;9.634;2023-03-02T05:10:48;3.20;1.00
1602;DHT22;794;48.592;9.634;2023-03-02T05:13:17;3.00;1.00
1602;DHT22;794;48.592;9.634;2023-03-02T05:15:44;2.60;1.00
1602;DHT22;794;48.592;9.634;2023-03-02T05:18:11;2.30;1.00
1602;DHT22;794;48.592;9.634;2023-03-02T05:20:38;1.90;1.00
1602;DHT22;794;48.592;9.634;2023-03-02T05:23:07;2.50;1.00
1602;DHT22;794;48.592;9.634;2023-03-02T05:25:36;3.60;1.00
1602;DHT22;794;48.592;9.634;2023-03-02T05:28:04;2.50;1.00
1602;DHT22;794;48.592;9.634;2023-03-02T05:30:32;2.20;1.00
1602;DHT22;794;48.592;9.634;2023-03-02T05:33:02;2.00;1.00
1602;DHT22;794;48.592;9.634;2023-03-02T05:35:29;1.80;1.00
1602;DHT22;794;48.592;9.634;2023-03-02T05:37:56;3.70;1.00
1602;DHT22;794;48.592;9.634;2023-03-02T05:40:24;2.20;1.00
1602;DHT22;794;48.592;9.634;2023-03-02T05:42:51;4.20;1.00
1602;DHT22;794;48.592;9.634;2023-03-02T05:45:21;1.90;1.00
1602;DHT22;794;48.592;9.634;2023-03-02T05:47:50;3.20;1.00
1602;DHT22;794;48.592;9.634;2023-03-02T05:50:17;3.50;1.00
1602;DHT22;794;48.592;9.634;2023-03-02T05:52:44;1.90;1.00
1602;DHT22;794;48.592;9.634;2023-03-02T05:55:12;2.40;1.00
1602;DHT22;794;48.592;9.634;2023-03-02T05:57:39;2.90;1.00
1602;DHT22;794;48.592;9.634;2023-03-02T06:00:07;3.40;1.00
1602;DHT22;794;48.592;9.634;2023-03-02T06:02:36;2.30;1.00
1602;DHT22;794;48.592;9.634;2023-03-02T06:05:06;2.20;1.00
1602;DHT22;794;48.592;9.634;2023-03-02T06:07:33;2.20;1.00
1602;DHT22;794;48.592;9.634;2023-03-02T06:10:00;3.00;1.00
1602;DHT22;794;48.592;9.634;2023-03-02T06:12:27;2.60;1.00
1602;DHT22;794;48.592;9.634;2023-03-02T06:14:54;3.90;1.00
1602;DHT22;794;48.592;9.634;2023-03-02T06:17:21;2.20;1.00
1602;DHT22;794;48.592;9.634;2023-03-02T06:19:48;4.40;1.00
1602;DHT22;794;48.592;9.634;2023-03-02T06:22:17;4.00;1.00
1602;DHT22;794;48.592;9.634;2023-03-02T06:24:44;3.80;1.00
1602;DHT22;794;48.592;9.634;2023-03-02T06:27:11;2.50;1.00
1602;DHT22;794;48.592;9.634;2023-03-02T06:29:38;2.70;1.00
1602;DHT22;794;48.592;9.634;2023-03-02T06:32:05;2.90;1.00
1602;DHT22;794;48.592;9.634;2023-03-02T06:34:32;4.20;1.00
1602;DHT22;794;48.592;9.634;2023-03-02T06:36:59;2.90;1.00
1602;DHT22;794;48.592;9.634;2023-03-02T06:39:28;2.70;1.00
1602;DHT22;794;48.592;9.634;2023-03-02T06:41:54;2.70;1.00
1602;DHT22;794;48.592;9.634;2023-03-02T06:44:21;2.90;1.00
1602;DHT22;794;48.592;9.634;2023-03-02T06:46:48;2.20;1.00
1602;DHT22;794;48.592;9.634;2023-03-02T06:49:15;3.00;1.00
1602;DHT22;794;48.592;9.634;2023-03-02T06:51:42;3.40;1.00
1602;DHT22;794;48.592;9.634;2023-03-02T06:54:09;2.40;1.00
1602;DHT22;794;48.592;9.634;2023-03-02T06:56:38;2.00;1.00
1602;DHT22;794;48.592;9.634;2023-03-02T06:59:05;2.30;1.00
1602;DHT22;794;48.592;9.634;2023-03-02T07:01:31;4.40;1.00
1602;DHT22;794;48.592;9.634;2023-03-02T07:04:00;3.00;1.00
1602;DHT22;794;48.592;9.634;2023-03-02T07:06:27;2.60;1.00
1602;DHT22;794;48.592;9.634;2023-03-02T07:08:54;2.20;1.00
1602;DHT22;794;48.592;9.634;2023-03-02T07:11:21;3.20;1.00
1602;DHT22;794;48.592;9.634;2023-03-02T07:13:49;4.20;1.00
1602;DHT22;794;48.592;9.634;2023-03-02T07:16:17;2.30;1.00
1602;DHT22;794;48.592;9.634;2023-03-02T07:18:44;2.60;1.00
1602;DHT22;794;48.592;9.634;2023-03-02T07:21:11;4.60;1.00
1602;DHT22;794;48.592;9.634;2023-03-02T07:23:38;3.30;1.00
1602;DHT22;794;48.592;9.634;2023-03-02T07:26:04;2.40;1.00
1602;DHT22;794;48.592;9.634;2023-03-02T07:28:34;3.40;1.00
1602;DHT22;794;48.592;9.634;2023-03-02T07:31:02;2.30;1.00
1602;DHT22;794;48.592;9.634;2023-03-02T07:33:29;2.30;1.00
1602;DHT22;794;48.592;9.634;2023-03-02T07:35:57;3.10;1.00
1602;DHT22;794;48.592;9.634;2023-03-02T07:38:24;3.10;1.00
1602;DHT22;794;48.592;9.634;2023-03-02T07:40:51;4.30;1.00
1602;DHT22;794;48.592;9.634;2023-03-02T07:43:18;2.50;1.00
1602;DHT22;794;48.592;9.634;2023-03-02T07:45:45;3.40;1.00
1602;DHT22;794;48.592;9.634;2023-03-02T07:48:13;2.70;1.00
1602;DHT22;794;48.592;9.634;2023-03-02T07:50:40;2.40;1.00
1602;DHT22;794;48.592;9.634;2023-03-02T07:53:07;2.30;1.00
1602;DHT22;794;48.592;9.634;2023-03-02T07:55:34;4.00;1.00
1602;DHT22;794;48.592;9.634;2023-03-02T07:58:01;4.00;1.00
1602;DHT22;794;48.592;9.634;2023-03-02T08:00:28;4.50;1.00
1602;DHT22;794;48.592;9.634;2023-03-02T08:02:55;2.80;1.00
1602;DHT22;794;48.592;9.634;2023-03-02T08:05:23;4.00;1.00
1602;DHT22;794;48.592;9.634;2023-03-02T08:07:50;3.30;1.00
1602;DHT22;794;48.592;9.634;2023-03-02T08:10:17;4.20;1.00
1602;DHT22;794;48.592;9.634;2023-03-02T08:12:44;3.00;1.00
1602;DHT22;794;48.592;9.634;2023-03-02T08:15:11;3.30;1.00
1602;DHT22;794;48.592;9.634;2023-03-02T08:17:37;2.90;1.00
1602;DHT22;794;48.592;9.634;2023-03-02T08:20:05;2.80;1.00
1602;DHT22;794;48.592;9.634;2023-03-02T08:22:34;3.30;1.00
1602;DHT22;794;48.592;9.634;2023-03-02T08:25:02;3.70;1.00
1602;DHT22;794;48.592;9.634;2023-03-02T08:27:29;4.80;1.00
1602;DHT22;794;48.592;9.634;2023-03-02T08:29:56;3.90;1.00
1602;DHT22;794;48.592;9.634;2023-03-02T08:32:23;3.40;1.00
1602;DHT22;794;48.592;9.634;2023-03-02T08:34:49;3.50;1.00
1602;DHT22;794;48.592;9.634;2023-03-02T08:37:16;3.80;1.00
1602;DHT22;794;48.592;9.634;2023-03-02T08:39:45;3.70;1.00
1602;DHT22;794;48.592;9.634;2023-03-02T08:42:13;3.70;1.00
1602;DHT22;794;48.592;9.634;2023-03-02T08:44:39;3.40;1.00
1602;DHT22;794;48.592;9.634;2023-03-02T08:47:06;3.80;1.00
1602;DHT22;794;48.592;9.634;2023-03-02T08:49:33;4.40;1.00
1602;DHT22;794;48.592;9.634;2023-03-02T08:52:03;3.90;1.00
1602;DHT22;794;48.592;9.634;2023-03-02T08:54:30;4.20;1.00
1602;DHT22;794;48.592;9.634;2023-03-02T08:57:00;4.30;1.00
1602;DHT22;794;48.592;9.634;2023-03-02T08:59:27;4.50;1.00
1602;DHT22;794;48.592;9.634;2023-03-02T09:01:54;4.60;1.00
1602;DHT22;794;48.592;9.634;2023-03-02T09:04:21;4.50;1.00
1602;DHT22;794;48.592;9.634;2023-03-02T09:06:48;4.40;1.00
1602;DHT22;794;48.592;9.634;2023-03-02T09:09:15;4.50;1.00
1602;DHT22;794;48.592;9.634;2023-03-02T09:11:42;4.60;1.00
1602;DHT22;794;48.592;9.634;2023-03-02T09:14:10;4.70;1.00
1602;DHT22;794;48.592;9.634;2023-03-02T09:16:38;4.40;1.00
1602;DHT22;794;48.592;9.634;2023-03-02T09:19:05;5.10;1.00
1602;DHT22;794;48.592;9.634;2023-03-02T09:21:32;6.20;1.00
1602;DHT22;794;48.592;9.634;2023-03-02T09:23:59;5.40;1.00
1602;DHT22;794;48.592;9.634;2023-03-02T09:26:26;5.80;1.00
1602;DHT22;794;48.592;9.634;2023-03-02T09:28:53;5.30;1.00
1602;DHT22;794;48.592;9.634;2023-03-02T09:31:21;6.00;1.00
1602;DHT22;794;48.592;9.634;2023-03-02T09:34:16;6.60;1.00
1602;DHT22;794;48.592;9.634;2023-03-02T09:36:50;6.90;1.00
1602;DHT22;794;48.592;9.634;2023-03-02T09:39:17;6.70;1.00
1602;DHT22;794;48.592;9.634;2023-03-02T09:42:16;7.10;1.00
1602;DHT22;794;48.592;9.634;2023-03-02T09:45:08;7.10;1.00
1602;DHT22;794;48.592;9.634;2023-03-02T09:47:46;7.50;1.00
1602;DHT22;794;48.592;9.634;2023-03-02T09:50:25;8.00;1.00
1602;DHT22;794;48.592;9.634;2023-03-02T09:53:10;8.00;1.00
1602;DHT22;794;48.592;9.634;2023-03-02T09:55:44;7.30;1.00
1602;DHT22;794;48.592;9.634;2023-03-02T09:58:15;6.50;1.00
1602;DHT22;794;48.592;9.634;2023-03-02T10:00:44;7.40;1.00
1602;DHT22;794;48.592;9.634;2023-03-02T10:03:16;7.90;1.00
1602;DHT22;794;48.592;9.634;2023-03-02T10:05:45;8.30;1.00
1602;DHT22;794;48.592;9.634;2023-03-02T10:08:15;7.80;1.00
1602;DHT22;794;48.592;9.634;2023-03-02T10:10:46;8.20;1.00
1602;DHT22;794;48.592;9.634;2023-03-02T10:13:24;8.60;1.00
1602;DHT22;794;48.592;9.634;2023-03-02T10:16:02;9.40;1.00
1602;DHT22;794;48.592;9.634;2023-03-02T10:18:36;9.40;1.00
1602;DHT22;794;48.592;9.634;2023-03-02T10:21:11;10.00;1.00
1602;DHT22;794;48.592;9.634;2023-03-02T10:23:43;9.80;1.00
1602;DHT22;794;48.592;9.634;2023-03-02T10:26:26;10.20;1.00
1602;DHT22;794;48.592;9.634;2023-03-02T10:29:00;10.90;1.00
1602;DHT22;794;48.592;9.634;2023-03-02T10:31:29;11.60;1.00
1602;DHT22;794;48.592;9.634;2023-03-02T10:33:59;12.20;1.00
1602;DHT22;794;48.592;9.634;2023-03-02T10:36:30;12.30;1.00
1602;DHT22;794;48.592;9.634;2023-03-02T10:39:05;12.30;1.00
1602;DHT22;794;48.592;9.634;2023-03-02T10:41:37;12.00;1.00
1602;DHT22;794;48.592;9.634;2023-03-02T10:44:06;12.30;1.00
1602;DHT22;794;48.592;9.634;2023-03-02T10:46:40;12.20;1.00
1602;DHT22;794;48.592;9.634;2023-03-02T10:49:24;11.20;1.00
1602;DHT22;794;48.592;9.634;2023-03-02T10:51:55;11.20;1.00
1602;DHT22;794;48.592;9.634;2023-03-02T10:54:23;10.80;1.00
1602;DHT22;794;48.592;9.634;2023-03-02T10:56:53;10.90;1.00
1602;DHT22;794;48.592;9.634;2023-03-02T10:59:40;11.30;1.00
1602;DHT22;794;48.592;9.634;2023-03-02T11:02:16;11.50;1.00
1602;DHT22;794;48.592;9.634;2023-03-02T11:04:45;11.00;1.00
1602;DHT22;794;48.592;9.634;2023-03-02T11:07:17;10.70;1.00
1602;DHT22;794;48.592;9.634;2023-03-02T11:09:58;10.80;1.00
1602;DHT22;794;48.592;9.634;2023-03-02T11:12:27;10.00;1.00
1602;DHT22;794;48.592;9.634;2023-03-02T11:15:12;10.10;1.00
1602;DHT22;794;48.592;9.634;2023-03-02T11:17:42;10.80;1.00
1602;DHT22;794;48.592;9.634;2023-03-02T11:20:16;10.30;1.00
1602;DHT22;794;48.592;9.634;2023-03-02T11:22:51;10.70;1.00
1602;DHT22;794;48.592;9.634;2023-03-02T11:25:24;9.50;1.00
1602;DHT22;794;48.592;9.634;2023-03-02T11:27:58;9.20;1.00
1602;DHT22;794;48.592;9.634;2023-03-02T11:30:26;9.70;1.00
1602;DHT22;794;48.592;9.634;2023-03-02T11:33:01;9.90;1.00
1602;DHT22;794;48.592;9.634;2023-03-02T11:35:35;9.80;1.00
1602;DHT22;794;48.592;9.634;2023-03-02T11:38:11;9.50;1.00
1602;DHT22;794;48.592;9.634;2023-03-02T11:40:47;9.90;1.00
1602;DHT22;794;48.592;9.634;2023-03-02T11:43:15;9.70;1.00
1602;DHT22;794;48.592;9.634;2023-03-02T11:45:44;9.40;1.00
1602;DHT22;794;48.592;9.634;2023-03-02T11:48:17;9.90;1.00
1602;DHT22;794;48.592;9.634;2023-03-02T11:50:54;9.40;1.00
1602;DHT22;794;48.592;9.634;2023-03-02T11:53:22;9.10;1.00
1602;DHT22;794;48.592;9.634;2023-03-02T11:55:51;9.60;1.00
1602;DHT22;794;48.592;9.634;2023-03-02T11:58:20;10.00;1.00
1602;DHT22;794;48.592;9.634;2023-03-02T12:00:47;9.20;1.00
1602;DHT22;794;48.592;9.634;2023-03-02T12:03:34;9.20;1.00
1602;DHT22;794;48.592;9.634;2023-03-02T12:06:06;8.50;1.00
1602;DHT22;794;48.592;9.634;2023-03-02T12:08:37;9.80;1.00
1602;DHT22;794;48.592;9.634;2023-03-02T12:11:06;9.50;1.00
1602;DHT22;794;48.592;9.634;2023-03-02T12:13:35;9.60;1.00
1602;DHT22;794;48.592;9.634;2023-03-02T12:16:02;9.50;1.00
1602;DHT22;794;48.592;9.634;2023-03-02T12:18:50;9.20;1.00
1602;DHT22;794;48.592;9.634;2023-03-02T12:21:20;9.50;1.00
1602;DHT22;794;48.592;9.634;2023-03-02T12:23:57;9.30;1.00
1602;DHT22;794;48.592;9.634;2023-03-02T12:26:28;9.00;1.00
1602;DHT22;794;48.592;9.634;2023-03-02T12:29:00;8.90;1.00
1602;DHT22;794;48.592;9.634;2023-03-02T12:31:44;9.10;1.00
1602;DHT22;794;48.592;9.634;2023-03-02T12:34:27;8.90;1.00
1602;DHT22;794;48.592;9.634;2023-03-02T12:37:00;9.20;1.00
1602;DHT22;794;48.592;9.634;2023-03-02T12:42:43;9.00;1.00
1602;DHT22;794;48.592;9.634;2023-03-02T12:45:22;9.00;1.00
1602;DHT22;794;48.592;9.634;2023-03-02T12:48:00;9.30;1.00
1602;DHT22;794;48.592;9.634;2023-03-02T12:50:30;9.20;1.00
1602;DHT22;794;48.592;9.634;2023-03-02T12:53:00;8.90;1.00
1602;DHT22;794;48.592;9.634;2023-03-02T12:55:28;8.60;1.00
1602;DHT22;794;48.592;9.634;2023-03-02T12:57:56;8.90;1.00
1602;DHT22;794;48.592;9.634;2023-03-02T13:00:26;8.90;1.00
1602;DHT22;794;48.592;9.634;2023-03-02T13:02:56;8.90;1.00
1602;DHT22;794;48.592;9.634;2023-03-02T13:05:26;9.00;1.00
1602;DHT22;794;48.592;9.634;2023-03-02T13:07:58;8.90;1.00
1602;DHT22;794;48.592;9.634;2023-03-02T13:10:29;9.10;1.00
1602;DHT22;794;48.592;9.634;2023-03-02T13:12:58;8.90;1.00
1602;DHT22;794;48.592;9.634;2023-03-02T13:15:26;8.80;1.00
1602;DHT22;794;48.592;9.634;2023-03-02T13:17:54;8.80;1.00
1602;DHT22;794;48.592;9.634;2023-03-02T13:20:23;9.20;1.00
1602;DHT22;794;48.592;9.634;2023-03-02T13:22:51;8.80;1.00
1602;DHT22;794;48.592;9.634;2023-03-02T13:25:25;8.40;1.00
1602;DHT22;794;48.592;9.634;2023-03-02T13:27:54;8.60;1.00
1602;DHT22;794;48.592;9.634;2023-03-02T13:30:24;8.40;1.00
1602;DHT22;794;48.592;9.634;2023-03-02T13:32:54;8.20;1.00
1602;DHT22;794;48.592;9.634;2023-03-02T13:35:25;8.30;1.00
1602;DHT22;794;48.592;9.634;2023-03-02T13:37:56;8.60;1.00
1602;DHT22;794;48.592;9.634;2023-03-02T13:40:42;8.20;1.00
1602;DHT22;794;48.592;9.634;2023-03-02T13:43:36;8.30;1.00
1602;DHT22;794;48.592;9.634;2023-03-02T13:46:25;8.50;1.00
1602;DHT22;794;48.592;9.634;2023-03-02T13:48:54;8.20;1.00
1602;DHT22;794;48.592;9.634;2023-03-02T13:51:31;8.40;1.00
1602;DHT22;794;48.592;9.634;2023-03-02T13:54:02;8.50;1.00
1602;DHT22;794;48.592;9.634;2023-03-02T13:56:33;8.80;1.00
1602;DHT22;794;48.592;9.634;2023-03-02T13:59:09;9.10;1.00
1602;DHT22;794;48.592;9.634;2023-03-02T14:01:37;8.80;1.00
1602;DHT22;794;48.592;9.634;2023-03-02T14:04:10;9.10;1.00
1602;DHT22;794;48.592;9.634;2023-03-02T14:06:41;9.30;1.00
1602;DHT22;794;48.592;9.634;2023-03-02T14:09:08;9.60;1.00
1602;DHT22;794;48.592;9.634;2023-03-02T14:11:41;9.80;1.00
1602;DHT22;794;48.592;9.634;2023-03-02T14:14:13;9.90;1.00
1602;DHT22;794;48.592;9.634;2023-03-02T14:16:41;10.70;1.00
1602;DHT22;794;48.592;9.634;2023-03-02T14:19:08;10.80;1.00
1602;DHT22;794;48.592;9.634;2023-03-02T14:21:36;10.60;1.00
1602;DHT22;794;48.592;9.634;2023-03-02T14:24:03;10.60;1.00
1602;DHT22;794;48.592;9.634;2023-03-02T14:26:35;10.30;1.00
1602;DHT22;794;48.592;9.634;2023-03-02T14:29:09;10.70;1.00
1602;DHT22;794;48.592;9.634;2023-03-02T14:31:38;10.90;1.00
1602;DHT22;794;48.592;9.634;2023-03-02T14:34:05;10.70;1.00
1602;DHT22;794;48.592;9.634;2023-03-02T14:36:32;11.20;1.00
1602;DHT22;794;48.592;9.634;2023-03-02T14:39:05;11.00;1.00
1602;DHT22;794;48.592;9.634;2023-03-02T14:41:33;11.10;1.00
1602;DHT22;794;48.592;9.634;2023-03-02T14:44:04;11.30;1.00
1602;DHT22;794;48.592;9.634;2023-03-02T14:46:32;11.40;1.00
1602;DHT22;794;48.592;9.634;2023-03-02T14:48:58;11.00;1.00
1602;DHT22;794;48.592;9.634;2023-03-02T14:51:27;10.90;1.00
1602;DHT22;794;48.592;9.634;2023-03-02T14:53:57;11.10;1.00
1602;DHT22;794;48.592;9.634;2023-03-02T14:56:24;10.80;1.00
1602;DHT22;794;48.592;9.634;2023-03-02T14:58:52;10.30;1.00
1602;DHT22;794;48.592;9.634;2023-03-02T15:01:21;10.30;1.00
1602;DHT22;794;48.592;9.634;2023-03-02T15:03:48;10.30;1.00
1602;DHT22;794;48.592;9.634;2023-03-02T15:06:24;10.10;1.00
1602;DHT22;794;48.592;9.634;2023-03-02T15:08:52;10.20;1.00
1602;DHT22;794;48.592;9.634;2023-03-02T15:38:28;9.20;1.00
1602;DHT22;794;48.592;9.634;2023-03-02T16:41:35;6.80;1.00
1602;DHT22;794;48.592;9.634;2023-03-02T16:44:02;6.50;1.00
1602;DHT22;794;48.592;9.634;2023-03-02T16:46:31;6.40;1.00
1602;DHT22;794;48.592;9.634;2023-03-02T16:49:01;6.60;1.00
1602;DHT22;794;48.592;9.634;2023-03-02T16:51:28;6.10;1.00
1602;DHT22;794;48.592;9.634;2023-03-02T16:53:55;6.00;1.00
1602;DHT22;794;48.592;9.634;2023-03-02T16:56:22;5.90;1.00
1602;DHT22;794;48.592;9.634;2023-03-02T16:58:51;5.80;1.00
1602;DHT22;794;48.592;9.634;2023-03-02T17:01:19;5.60;1.00
1602;DHT22;794;48.592;9.634;2023-03-02T17:03:47;5.30;1.00
1602;DHT22;794;48.592;9.634;2023-03-02T17:06:17;5.40;1.00
1602;DHT22;794;48.592;9.634;2023-03-02T17:08:44;5.10;1.00
1602;DHT22;794;48.592;9.634;2023-03-02T17:11:11;6.20;1.00
1602;DHT22;794;48.592;9.634;2023-03-02T17:13:38;5.10;1.00
1602;DHT22;794;48.592;9.634;2023-03-02T17:16:07;3.70;1.00
1602;DHT22;794;48.592;9.634;2023-03-02T17:18:34;5.30;1.00
1602;DHT22;794;48.592;9.634;2023-03-02T17:21:02;4.80;1.00
1602;DHT22;794;48.592;9.634;2023-03-02T17:23:29;4.50;1.00
1602;DHT22;794;48.592;9.634;2023-03-02T17:25:56;4.80;1.00
1602;DHT22;794;48.592;9.634;2023-03-02T17:28:23;4.70;1.00
1602;DHT22;794;48.592;9.634;2023-03-02T17:30:50;4.30;1.00
1602;DHT22;794;48.592;9.634;2023-03-02T17:33:19;5.50;1.00
1602;DHT22;794;48.592;9.634;2023-03-02T17:35:46;4.30;1.00
1602;DHT22;794;48.592;9.634;2023-03-02T17:38:13;4.00;1.00
1602;DHT22;794;48.592;9.634;2023-03-02T17:40:40;4.40;1.00
1602;DHT22;794;48.592;9.634;2023-03-02T17:43:07;4.20;1.00
1602;DHT22;794;48.592;9.634;2023-03-02T17:45:36;4.10;1.00
1602;DHT22;794;48.592;9.634;2023-03-02T17:48:03;3.70;1.00
1602;DHT22;794;48.592;9.634;2023-03-02T17:50:31;3.90;1.00
1602;DHT22;794;48.592;9.634;2023-03-02T17:52:58;3.80;1.00
1602;DHT22;794;48.592;9.634;2023-03-02T17:55:26;3.50;1.00
1602;DHT22;794;48.592;9.634;2023-03-02T17:57:54;3.60;1.00
1602;DHT22;794;48.592;9.634;2023-03-02T18:00:22;3.60;1.00
1602;DHT22;794;48.592;9.634;2023-03-02T18:02:50;3.40;1.00
1602;DHT22;794;48.592;9.634;2023-03-02T18:05:18;3.90;1.00
1602;DHT22;794;48.592;9.634;2023-03-02T18:07:47;4.10;1.00
1602;DHT22;794;48.592;9.634;2023-03-02T18:10:16;3.40;1.00
1602;DHT22;794;48.592;9.634;2023-03-02T18:12:43;3.30;1.00
1602;DHT22;794;48.592;9.634;2023-03-02T18:15:11;3.70;1.00
1602;DHT22;794;48.592;9.634;2023-03-02T18:17:38;3.30;1.00
1602;DHT22;794;48.592;9.634;2023-03-02T18:20:07;2.80;1.00
1602;DHT22;794;48.592;9.634;2023-03-02T18:22:34;3.00;1.00
1602;DHT22;794;48.592;9.634;2023-03-02T18:25:03;3.60;1.00
1602;DHT22;794;48.592;9.634;2023-03-02T18:27:30;3.10;1.00
1602;DHT22;794;48.592;9.634;2023-03-02T18:29:57;2.90;1.00
1602;DHT22;794;48.592;9.634;2023-03-02T18:32:24;4.70;1.00
1602;DHT22;794;48.592;9.634;2023-03-02T18:34:51;3.00;1.00